createdAt,value
2023-04-20T00:02:03.460Z,8.60
2023-04-20T00:05:45.520Z,8.60
2023-04-20T00:09:27.985Z,8.50
2023-04-20T00:13:09.727Z,8.50
2023-04-20T00:16:51.537Z,8.40
2023-04-20T00:20:33.734Z,8.30
2023-04-20T00:24:15.762Z,8.20
2023-04-20T00:27:58.269Z,8.20
2023-04-20T00:31:40.032Z,8.10
2023-04-20T00:35:21.949Z,8.10
2023-04-20T00:39:05.693Z,8.00
2023-04-20T00:42:47.443Z,7.90
2023-04-20T00:46:29.251Z,7.90
2023-04-20T00:50:11.475Z,7.80
2023-04-20T00:53:53.371Z,7.70
2023-04-20T00:57:35.600Z,7.70
2023-04-20T01:01:17.786Z,7.60
2023-04-20T01:04:59.955Z,7.60
2023-04-20T01:08:49.897Z,7.50
2023-04-20T01:12:31.678Z,7.40
2023-04-20T01:16:13.679Z,7.30
2023-04-20T01:19:55.756Z,7.30
2023-04-20T01:23:37.592Z,7.20
2023-04-20T01:27:19.741Z,7.10
2023-04-20T01:31:03.818Z,7.10
2023-04-20T01:34:45.848Z,7.10
2023-04-20T01:38:27.920Z,7.10
2023-04-20T01:42:09.850Z,7.00
2023-04-20T01:45:51.664Z,7.00
2023-04-20T01:49:33.463Z,6.90
2023-04-20T01:53:15.192Z,6.80
2023-04-20T01:56:58.413Z,6.80
2023-04-20T02:00:40.250Z,6.70
2023-04-20T02:04:22.895Z,6.70
2023-04-20T02:08:04.916Z,6.70
2023-04-20T02:11:46.701Z,6.70
2023-04-20T02:15:28.488Z,6.60
2023-04-20T02:19:10.308Z,6.60
2023-04-20T02:22:52.055Z,6.60
2023-04-20T02:26:33.844Z,6.50
2023-04-20T02:30:15.547Z,6.50
2023-04-20T02:33:57.289Z,6.50
2023-04-20T02:37:39.306Z,6.40
2023-04-20T02:41:21.202Z,6.30
2023-04-20T02:45:03.216Z,6.30
2023-04-20T02:48:44.971Z,6.20
2023-04-20T02:52:26.668Z,6.20
2023-04-20T02:56:08.446Z,6.10
2023-04-20T02:59:50.357Z,6.10
2023-04-20T03:03:32.638Z,6.10
2023-04-20T03:07:16.602Z,6.00
2023-04-20T03:10:58.578Z,6.00
2023-04-20T03:14:40.297Z,6.00
2023-04-20T03:18:22.122Z,5.90
2023-04-20T03:22:04.439Z,5.90
2023-04-20T03:25:46.455Z,5.80
2023-04-20T03:29:28.217Z,5.80
2023-04-20T03:33:10.380Z,5.70
2023-04-20T03:36:53.291Z,5.70
2023-04-20T03:40:35.035Z,5.70
2023-04-20T03:44:16.858Z,5.60
2023-04-20T03:47:58.802Z,5.60
2023-04-20T03:51:40.570Z,5.60
2023-04-20T03:55:22.356Z,5.50
2023-04-20T03:59:04.049Z,5.40
2023-04-20T04:02:46.398Z,5.40
2023-04-20T04:06:28.311Z,5.40
2023-04-20T04:10:10.628Z,5.30
2023-04-20T04:13:52.345Z,5.30
2023-04-20T04:17:34.147Z,5.20
2023-04-20T04:21:15.950Z,5.20
2023-04-20T04:24:57.773Z,5.20
2023-04-20T04:28:40.407Z,5.10
2023-04-20T04:32:24.369Z,5.10
2023-04-20T04:36:07.152Z,5.00
2023-04-20T04:39:51.215Z,5.00
2023-04-20T04:43:33.585Z,5.00
2023-04-20T04:47:17.670Z,5.00
2023-04-20T04:50:59.430Z,4.90
2023-04-20T04:54:41.417Z,4.90
2023-04-20T04:58:23.154Z,4.90
2023-04-20T05:02:04.977Z,4.80
2023-04-20T05:05:46.817Z,4.90
2023-04-20T05:09:33.409Z,4.80
2023-04-20T05:13:15.222Z,4.80
2023-04-20T05:16:58.270Z,4.80
2023-04-20T05:20:39.996Z,4.80
2023-04-20T05:24:21.811Z,4.70
2023-04-20T05:28:03.731Z,4.70
2023-04-20T05:31:45.702Z,4.80
2023-04-20T05:35:27.572Z,4.80
2023-04-20T05:39:10.528Z,4.80
2023-04-20T05:42:52.371Z,4.80
2023-04-20T05:46:34.152Z,4.80
2023-04-20T05:50:15.853Z,4.80
2023-04-20T05:53:57.621Z,4.80
2023-04-20T05:57:42.752Z,4.90
2023-04-20T06:01:24.573Z,4.90
2023-04-20T06:05:07.050Z,4.90
2023-04-20T06:08:50.847Z,5.00
2023-04-20T06:12:32.978Z,5.00
2023-04-20T06:16:14.787Z,5.00
2023-04-20T06:19:56.586Z,5.10
2023-04-20T06:23:38.560Z,5.20
2023-04-20T06:27:20.404Z,5.20
2023-04-20T06:31:03.254Z,5.30
2023-04-20T06:34:45.173Z,5.30
2023-04-20T06:38:27.064Z,5.40
2023-04-20T06:42:08.852Z,5.50
2023-04-20T06:45:50.711Z,5.50
2023-04-20T06:49:32.477Z,5.60
2023-04-20T06:53:14.222Z,5.70
2023-04-20T06:56:56.331Z,5.80
2023-04-20T07:00:38.097Z,5.90
2023-04-20T07:04:20.006Z,6.10
2023-04-20T07:08:02.266Z,6.30
2023-04-20T07:11:43.975Z,6.60
2023-04-20T07:15:25.867Z,6.80
2023-04-20T07:19:07.747Z,7.20
2023-04-20T07:22:49.524Z,7.40
2023-04-20T07:26:32.381Z,7.70
2023-04-20T07:30:14.559Z,8.00
2023-04-20T07:33:56.408Z,8.30
2023-04-20T07:37:38.217Z,8.50
2023-04-20T07:41:23.013Z,8.70
2023-04-20T07:45:09.390Z,8.80
2023-04-20T07:48:51.114Z,9.00
2023-04-20T07:52:33.214Z,9.20
2023-04-20T07:56:14.929Z,9.50
2023-04-20T07:59:56.717Z,9.60
2023-04-20T08:03:38.837Z,9.80
2023-04-20T08:07:20.880Z,9.90
2023-04-20T08:11:02.605Z,10.00
2023-04-20T08:14:44.362Z,10.20
2023-04-20T08:18:26.209Z,10.40
2023-04-20T08:22:08.047Z,10.70
2023-04-20T08:25:49.764Z,11.00
2023-04-20T08:29:31.575Z,11.10
2023-04-20T08:33:13.572Z,11.40
2023-04-20T08:36:55.684Z,11.50
2023-04-20T08:40:38.020Z,11.50
2023-04-20T08:44:20.563Z,11.50
2023-04-20T08:48:08.213Z,11.40
2023-04-20T08:51:50.181Z,11.30
2023-04-20T08:55:32.637Z,11.30
2023-04-20T08:59:15.343Z,11.20
2023-04-20T09:02:59.134Z,11.20
2023-04-20T09:06:44.451Z,11.20
2023-04-20T09:10:27.678Z,11.20
2023-04-20T09:14:12.536Z,11.20
2023-04-20T09:17:54.491Z,11.20
2023-04-20T09:21:36.434Z,11.20
2023-04-20T09:25:19.266Z,11.30
2023-04-20T09:29:03.418Z,11.40
2023-04-20T09:32:47.381Z,11.70
2023-04-20T09:36:37.769Z,12.20
2023-04-20T09:40:21.468Z,12.50
2023-04-20T09:44:03.883Z,12.60
2023-04-20T09:47:47.656Z,12.90
2023-04-20T09:51:32.335Z,13.50
2023-04-20T09:55:14.099Z,14.50
2023-04-20T09:58:56.936Z,15.60
2023-04-20T10:02:40.057Z,16.50
2023-04-20T10:06:30.709Z,17.40
2023-04-20T10:10:14.620Z,18.30
2023-04-20T10:13:57.923Z,19.00
2023-04-20T10:17:39.855Z,19.70
2023-04-20T10:21:21.909Z,20.50
2023-04-20T10:25:20.558Z,21.20
2023-04-20T10:29:02.486Z,21.90
2023-04-20T10:32:44.255Z,22.50
2023-04-20T10:36:37.293Z,22.80
2023-04-20T10:40:29.359Z,23.10
2023-04-20T10:44:11.132Z,23.40
2023-04-20T10:47:53.887Z,23.90
2023-04-20T10:51:36.345Z,24.20
2023-04-20T10:55:23.452Z,24.50
2023-04-20T10:59:13.126Z,24.80
2023-04-20T11:02:59.179Z,25.00
2023-04-20T11:06:44.370Z,25.30
2023-04-20T11:10:40.857Z,25.60
2023-04-20T11:14:22.636Z,26.20
2023-04-20T11:18:11.993Z,26.40
2023-04-20T11:21:54.081Z,26.70
2023-04-20T11:25:35.813Z,26.90
2023-04-20T11:29:28.578Z,27.10
2023-04-20T11:33:10.899Z,27.50
2023-04-20T11:36:54.572Z,27.70
2023-04-20T11:40:36.539Z,28.00
2023-04-20T11:44:20.921Z,28.20
2023-04-20T11:48:03.454Z,28.40
2023-04-20T11:51:46.897Z,28.70
2023-04-20T11:55:28.636Z,28.90
2023-04-20T11:59:11.170Z,29.10
2023-04-20T12:02:53.031Z,29.20
2023-04-20T12:06:34.938Z,29.40
2023-04-20T12:10:16.904Z,29.50
2023-04-20T12:14:00.268Z,29.80
2023-04-20T12:17:42.044Z,30.00
2023-04-20T12:21:23.840Z,30.10
2023-04-20T12:25:06.901Z,30.20
2023-04-20T12:28:48.622Z,30.40
2023-04-20T12:32:30.352Z,30.70
2023-04-20T12:36:12.121Z,31.00
2023-04-20T12:39:53.901Z,31.10
2023-04-20T12:43:35.745Z,31.30
2023-04-20T12:47:17.477Z,31.20
2023-04-20T12:50:59.244Z,31.40
2023-04-20T12:54:43.864Z,31.50
2023-04-20T12:58:26.101Z,31.40
2023-04-20T13:02:07.857Z,31.40
2023-04-20T13:05:50.109Z,31.20
2023-04-20T13:09:31.858Z,31.00
2023-04-20T13:13:13.775Z,30.90
2023-04-20T13:16:55.794Z,31.10
2023-04-20T13:20:37.788Z,31.20
2023-04-20T13:24:19.739Z,31.20
2023-04-20T13:28:03.054Z,31.30
2023-04-20T13:31:44.822Z,31.30
2023-04-20T13:35:26.889Z,31.20
2023-04-20T13:39:10.315Z,31.10
2023-04-20T13:42:52.093Z,31.10
2023-04-20T13:46:34.143Z,31.10
2023-04-20T13:50:15.972Z,30.90
2023-04-20T13:53:57.689Z,30.60
2023-04-20T13:57:39.431Z,30.70
2023-04-20T14:01:21.972Z,30.50
2023-04-20T14:05:04.213Z,30.30
2023-04-20T14:08:46.045Z,30.10
2023-04-20T14:12:28.565Z,30.30
2023-04-20T14:16:12.351Z,30.50
2023-04-20T14:19:54.085Z,30.50
2023-04-20T14:23:35.848Z,30.60
2023-04-20T14:27:18.076Z,30.40
2023-04-20T14:31:01.542Z,30.20
2023-04-20T14:34:43.299Z,30.00
2023-04-20T14:38:25.093Z,29.50
2023-04-20T14:42:07.661Z,28.90
2023-04-20T14:45:51.175Z,28.70
2023-04-20T14:49:32.950Z,28.50
2023-04-20T14:53:14.758Z,27.90
2023-04-20T14:56:56.541Z,27.10
2023-04-20T15:00:38.294Z,26.20
2023-04-20T15:04:20.632Z,25.60
2023-04-20T15:08:02.904Z,25.20
2023-04-20T15:11:44.615Z,25.00
2023-04-20T15:15:34.543Z,25.10
2023-04-20T15:19:23.200Z,25.20
2023-04-20T15:23:04.963Z,25.50
2023-04-20T15:26:46.731Z,25.60
2023-04-20T15:30:30.331Z,25.30
2023-04-20T15:34:15.117Z,24.70
2023-04-20T15:37:57.935Z,23.90
2023-04-20T15:41:39.737Z,23.30
2023-04-20T15:45:21.818Z,22.70
2023-04-20T15:49:03.671Z,22.40
2023-04-20T15:52:45.850Z,22.00
2023-04-20T15:56:27.629Z,21.80
2023-04-20T16:00:09.988Z,21.70
2023-04-20T16:03:52.045Z,21.60
2023-04-20T16:07:33.969Z,21.40
2023-04-20T16:11:15.757Z,21.30
2023-04-20T16:14:57.538Z,21.20
2023-04-20T16:18:39.312Z,21.10
2023-04-20T16:22:21.162Z,21.00
2023-04-20T16:26:03.048Z,20.90
2023-04-20T16:29:45.220Z,20.70
2023-04-20T16:33:27.387Z,20.70
2023-04-20T16:37:09.163Z,20.50
2023-04-20T16:40:50.945Z,20.30
2023-04-20T16:44:32.788Z,20.20
2023-04-20T16:48:14.564Z,20.00
2023-04-20T16:51:57.642Z,19.90
2023-04-20T16:55:39.404Z,19.90
2023-04-20T16:59:21.516Z,19.70
2023-04-20T17:03:10.415Z,19.60
2023-04-20T17:06:53.082Z,19.30
2023-04-20T17:10:37.255Z,19.10
2023-04-20T17:14:19.351Z,19.00
2023-04-20T17:18:01.267Z,18.80
2023-04-20T17:21:45.172Z,18.70
2023-04-20T17:25:26.931Z,18.60
2023-04-20T17:29:08.734Z,18.50
2023-04-20T17:32:50.486Z,18.40
2023-04-20T17:36:33.513Z,18.30
2023-04-20T17:40:15.456Z,18.20
2023-04-20T17:43:57.403Z,18.20
2023-04-20T17:47:39.255Z,18.00
2023-04-20T17:51:21.121Z,17.90
2023-04-20T17:55:03.041Z,17.80
2023-04-20T17:58:44.797Z,17.60
2023-04-20T18:02:26.827Z,17.50
2023-04-20T18:06:08.774Z,17.40
2023-04-20T18:09:50.615Z,17.20
2023-04-20T18:13:32.403Z,17.10
2023-04-20T18:17:14.175Z,17.00
2023-04-20T18:20:56.044Z,16.90
2023-04-20T18:24:38.118Z,16.80
2023-04-20T18:28:20.229Z,16.80
2023-04-20T18:32:02.097Z,16.70
2023-04-20T18:35:44.929Z,16.50
2023-04-20T18:39:26.860Z,16.40
2023-04-20T18:43:08.674Z,16.30
2023-04-20T18:46:50.530Z,16.20
2023-04-20T18:50:32.296Z,16.00
2023-04-20T18:54:14.070Z,15.90
2023-04-20T18:57:55.810Z,15.80
2023-04-20T19:01:40.600Z,15.70
2023-04-20T19:05:23.593Z,15.60
2023-04-20T19:09:07.829Z,15.50
2023-04-20T19:12:50.018Z,15.40
2023-04-20T19:16:33.304Z,15.30
2023-04-20T19:20:15.128Z,15.30
2023-04-20T19:23:56.855Z,15.10
2023-04-20T19:27:38.677Z,15.10
2023-04-20T19:31:20.583Z,15.00
2023-04-20T19:35:02.788Z,15.00
2023-04-20T19:38:44.496Z,15.00
2023-04-20T19:42:26.266Z,14.90
2023-04-20T19:46:09.737Z,14.80
2023-04-20T19:49:51.710Z,14.60
2023-04-20T19:53:33.998Z,14.50
2023-04-20T19:57:15.841Z,14.40
2023-04-20T20:00:57.739Z,14.20
2023-04-20T20:04:39.702Z,14.10
2023-04-20T20:08:21.797Z,13.90
2023-04-20T20:12:06.653Z,13.70
2023-04-20T20:15:48.442Z,13.50
2023-04-20T20:19:30.631Z,13.30
2023-04-20T20:23:12.848Z,13.20
2023-04-20T20:26:54.644Z,13.10
2023-04-20T20:30:36.505Z,13.00
2023-04-20T20:34:18.267Z,13.00
2023-04-20T20:38:00.387Z,12.90
2023-04-20T20:41:42.336Z,12.90
2023-04-20T20:45:24.137Z,12.70
2023-04-20T20:49:05.979Z,12.70
2023-04-20T20:52:47.774Z,12.70
2023-04-20T20:56:29.580Z,12.60
2023-04-20T21:00:12.005Z,12.50
2023-04-20T21:03:53.927Z,12.40
2023-04-20T21:07:35.992Z,12.30
2023-04-20T21:11:17.782Z,12.20
2023-04-20T21:14:59.533Z,12.00
2023-04-20T21:18:41.445Z,12.00
2023-04-20T21:22:23.260Z,11.80
2023-04-20T21:26:05.085Z,11.80
2023-04-20T21:29:46.925Z,11.70
2023-04-20T21:33:28.692Z,11.50
2023-04-20T21:37:11.088Z,11.40
2023-04-20T21:40:52.856Z,11.20
2023-04-20T21:44:34.668Z,11.10
2023-04-20T21:48:16.417Z,11.00
2023-04-20T21:51:58.168Z,10.90
2023-04-20T21:55:39.920Z,10.80
2023-04-20T21:59:21.645Z,10.70
2023-04-20T22:03:03.551Z,10.70
2023-04-20T22:06:45.576Z,10.50
2023-04-20T22:10:27.715Z,10.50
2023-04-20T22:14:09.451Z,10.40
2023-04-20T22:17:51.305Z,10.40
2023-04-20T22:21:33.092Z,10.40
2023-04-20T22:25:14.911Z,10.30
2023-04-20T22:28:56.626Z,10.40
2023-04-20T22:32:38.717Z,10.40
2023-04-20T22:36:20.829Z,10.30
2023-04-20T22:40:05.777Z,10.20
2023-04-20T22:43:47.605Z,10.10
2023-04-20T22:47:29.404Z,10.00
2023-04-20T22:51:11.118Z,9.90
2023-04-20T22:54:52.894Z,9.90
2023-04-20T22:58:34.652Z,9.90
2023-04-20T23:02:16.595Z,9.80
2023-04-20T23:05:59.301Z,9.70
2023-04-20T23:09:42.745Z,9.60
2023-04-20T23:13:26.237Z,9.50
2023-04-20T23:17:08.859Z,9.50
2023-04-20T23:20:50.737Z,9.50
2023-04-20T23:24:32.471Z,9.50
2023-04-20T23:28:14.196Z,9.40
2023-04-20T23:31:56.008Z,9.40
2023-04-20T23:35:37.824Z,9.30
2023-04-20T23:39:20.876Z,9.30
2023-04-20T23:43:02.805Z,9.20
2023-04-20T23:46:44.605Z,9.10
2023-04-20T23:50:26.414Z,9.00
2023-04-20T23:54:08.182Z,9.00
2023-04-20T23:57:49.979Z,8.90
